createdAt,value
2023-05-12T17:25:17.286Z,57.69
2023-05-12T17:26:18.979Z,58.04
2023-05-12T17:27:21.660Z,58.19
2023-05-12T17:28:24.398Z,57.92
2023-05-12T17:29:27.201Z,57.70
2023-05-12T17:30:30.022Z,57.34
2023-05-12T17:31:31.787Z,56.98
2023-05-12T17:32:34.533Z,56.75
2023-05-12T17:33:36.461Z,56.26
2023-05-12T17:34:39.741Z,55.96
2023-05-12T17:35:41.736Z,55.03
2023-05-12T17:36:44.424Z,54.78
2023-05-12T17:37:46.229Z,54.46
2023-05-12T17:38:51.219Z,54.04
2023-05-12T17:39:53.020Z,53.68
2023-05-12T17:40:57.293Z,53.20
2023-05-12T17:41:59.227Z,52.87
2023-05-12T17:43:01.934Z,52.60
2023-05-12T17:44:04.040Z,52.42
2023-05-12T17:45:07.967Z,52.20
2023-05-12T17:46:09.694Z,51.96
2023-05-12T17:47:14.017Z,51.84
2023-05-12T17:48:16.840Z,51.37
2023-05-12T17:49:18.563Z,51.25
2023-05-12T17:50:21.222Z,50.91
2023-05-12T17:51:22.958Z,50.76
2023-05-12T17:52:25.724Z,50.52
2023-05-12T17:53:27.452Z,50.29
2023-05-12T17:54:30.215Z,50.20
2023-05-12T17:55:32.509Z,49.92
2023-05-12T17:56:36.590Z,49.58
2023-05-12T17:57:38.509Z,49.59
2023-05-12T17:58:41.560Z,49.59
2023-05-12T17:59:43.270Z,48.85
2023-05-12T18:00:45.970Z,48.74
2023-05-12T18:01:47.759Z,48.74
2023-05-12T18:02:50.682Z,48.53
2023-05-12T18:03:53.014Z,48.52
2023-05-12T18:04:55.733Z,48.31
2023-05-12T18:05:57.870Z,48.21
2023-05-12T18:07:00.544Z,48.17
2023-05-12T18:08:03.296Z,47.95
2023-05-12T18:09:05.597Z,47.80
2023-05-12T18:10:09.916Z,47.97
2023-05-12T18:11:13.591Z,47.84
2023-05-12T18:12:18.474Z,47.56
2023-05-12T18:13:21.496Z,47.45
2023-05-12T18:14:24.311Z,47.20
2023-05-12T18:15:27.964Z,47.16
2023-05-12T18:16:30.871Z,47.14
2023-05-12T18:17:32.939Z,47.33
2023-05-12T18:18:35.879Z,47.35
2023-05-12T18:19:38.227Z,47.12
2023-05-12T18:20:41.489Z,47.06
2023-05-12T18:21:43.278Z,47.29
2023-05-12T18:22:46.085Z,47.24
2023-05-12T18:23:48.115Z,47.18
2023-05-12T18:24:51.761Z,47.08
2023-05-12T18:25:53.618Z,46.85
2023-05-12T18:26:56.573Z,46.72
2023-05-12T18:27:59.589Z,46.84
2023-05-12T18:29:02.392Z,46.86
2023-05-12T18:30:04.951Z,46.83
2023-05-12T18:31:15.834Z,46.81
2023-05-12T18:32:19.312Z,46.64
2023-05-12T18:33:21.383Z,46.62
2023-05-12T18:34:24.376Z,46.88
2023-05-12T18:35:27.142Z,46.79
2023-05-12T18:36:29.920Z,46.90
2023-05-12T18:37:31.632Z,46.85
2023-05-12T18:38:34.704Z,46.80
2023-05-12T18:39:36.449Z,46.80
2023-05-12T18:40:39.441Z,46.93
2023-05-12T18:41:41.141Z,46.86
2023-05-12T18:42:43.922Z,46.81
2023-05-12T18:43:47.058Z,46.55
2023-05-12T18:44:49.734Z,46.41
2023-05-12T18:45:51.601Z,46.55
2023-05-12T18:46:54.325Z,46.69
2023-05-12T18:47:56.177Z,46.60
2023-05-12T18:48:58.907Z,46.54
2023-05-12T18:50:00.622Z,46.54
2023-05-12T18:51:03.376Z,46.44
2023-05-12T18:52:05.604Z,46.61
2023-05-12T18:53:09.134Z,46.64
2023-05-12T18:54:10.868Z,46.62
2023-05-12T18:55:13.537Z,46.83
2023-05-12T18:56:15.842Z,46.60
2023-05-12T18:57:18.886Z,47.03
2023-05-12T18:58:20.598Z,46.76
2023-05-12T18:59:24.658Z,46.77
2023-05-12T19:00:31.666Z,47.10
2023-05-12T19:01:34.519Z,46.87
2023-05-12T19:02:36.514Z,47.07
2023-05-12T19:03:39.269Z,47.11
2023-05-12T19:04:41.267Z,47.06
2023-05-12T19:05:46.324Z,47.19
2023-05-12T19:06:48.305Z,47.39
2023-05-12T19:07:51.092Z,47.44
2023-05-12T19:08:52.827Z,47.63
2023-05-12T19:09:55.753Z,47.75
2023-05-12T19:10:57.498Z,47.66
2023-05-12T19:12:00.224Z,47.91
2023-05-12T19:13:01.990Z,47.85
2023-05-12T19:14:04.664Z,47.93
2023-05-12T19:15:09.974Z,47.92
2023-05-12T19:16:12.001Z,48.05
2023-05-12T19:17:14.751Z,48.13
2023-05-12T19:18:17.178Z,48.03
2023-05-12T19:19:19.963Z,48.26
2023-05-12T19:20:21.738Z,48.33
2023-05-12T19:21:24.475Z,48.73
2023-05-12T19:22:27.549Z,48.69
2023-05-12T19:23:31.307Z,48.75
2023-05-12T19:24:33.005Z,49.03
2023-05-12T19:25:35.738Z,49.02
2023-05-12T19:26:37.523Z,49.03
2023-05-12T19:27:40.690Z,49.17
2023-05-12T19:28:42.384Z,49.15
2023-05-12T19:29:45.270Z,49.24
2023-05-12T19:30:48.492Z,49.33
2023-05-12T19:31:52.854Z,49.31
2023-05-12T19:32:54.853Z,49.14
2023-05-12T19:33:57.631Z,49.17
2023-05-12T19:35:00.211Z,49.21
2023-05-12T19:36:03.189Z,49.09
2023-05-12T19:37:06.702Z,49.23
2023-05-12T19:38:09.372Z,49.29
2023-05-12T19:39:11.054Z,49.13
2023-05-12T19:40:14.027Z,49.34
2023-05-12T19:41:15.758Z,49.16
2023-05-12T19:42:18.433Z,49.25
2023-05-12T19:43:20.141Z,49.41
2023-05-12T19:44:23.005Z,49.32
2023-05-12T19:45:24.758Z,49.32
2023-05-12T19:46:29.417Z,49.37
2023-05-12T19:47:31.393Z,49.45
2023-05-12T19:48:34.173Z,49.39
2023-05-12T19:49:36.379Z,49.45
2023-05-12T19:50:39.166Z,49.41
2023-05-12T19:51:41.629Z,49.58
2023-05-12T19:52:44.370Z,49.71
2023-05-12T19:53:47.294Z,49.87
2023-05-12T19:54:48.988Z,50.06
2023-05-12T19:55:51.901Z,50.16
2023-05-12T19:56:53.604Z,50.24
2023-05-12T19:57:56.480Z,50.33
2023-05-12T19:58:58.279Z,50.29
2023-05-12T20:00:00.995Z,50.38
2023-05-12T20:01:02.824Z,50.58
2023-05-12T20:02:07.086Z,50.57
2023-05-12T20:03:09.011Z,50.76
2023-05-12T20:04:11.851Z,50.57
2023-05-12T20:05:13.622Z,50.62
2023-05-12T20:06:16.580Z,50.68
2023-05-12T20:07:18.290Z,50.79
2023-05-12T20:08:20.943Z,50.64
2023-05-12T20:09:24.631Z,51.02
2023-05-12T20:10:27.413Z,50.82
2023-05-12T20:11:29.123Z,50.90
2023-05-12T20:12:31.906Z,50.94
2023-05-12T20:13:33.625Z,50.92
2023-05-12T20:14:38.299Z,50.94
2023-05-12T20:15:40.138Z,50.93
2023-05-12T20:16:43.002Z,51.04
2023-05-12T20:17:46.236Z,50.90
2023-05-12T20:18:49.008Z,51.07
2023-05-12T20:19:50.774Z,51.03
2023-05-12T20:20:53.478Z,51.03
2023-05-12T20:21:55.177Z,51.17
2023-05-12T20:22:57.853Z,51.11
2023-05-12T20:23:59.566Z,51.19
2023-05-12T20:25:04.443Z,51.31
2023-05-12T20:26:07.829Z,51.28
2023-05-12T20:27:09.550Z,51.13
2023-05-12T20:28:12.425Z,51.46
2023-05-12T20:29:20.676Z,51.87
2023-05-12T20:30:23.564Z,51.83
2023-05-12T20:31:25.448Z,52.21
2023-05-12T20:32:28.178Z,52.24
2023-05-12T20:33:32.765Z,52.44
2023-05-12T20:34:34.475Z,52.51
2023-05-12T20:35:37.178Z,52.56
2023-05-12T20:36:38.910Z,52.49
2023-05-12T20:37:41.924Z,52.51
2023-05-12T20:38:43.658Z,52.90
2023-05-12T20:39:46.365Z,52.77
2023-05-12T20:40:49.129Z,52.72
2023-05-12T20:41:50.903Z,52.74
2023-05-12T20:42:53.563Z,52.59
2023-05-12T20:43:55.464Z,52.64
2023-05-12T20:44:59.082Z,52.95
2023-05-12T20:46:03.298Z,52.98
2023-05-12T20:47:06.786Z,53.12
2023-05-12T20:48:09.072Z,53.15
2023-05-12T20:49:13.159Z,53.09
2023-05-12T20:50:15.750Z,53.36
2023-05-12T20:51:18.770Z,53.28
2023-05-12T20:52:20.514Z,53.24
2023-05-12T20:53:23.270Z,53.46
2023-05-12T20:54:24.974Z,53.42
2023-05-12T20:55:27.686Z,53.44
2023-05-12T20:56:29.428Z,53.76
2023-05-12T20:57:32.278Z,53.47
2023-05-12T20:58:34.038Z,53.40
2023-05-12T20:59:36.708Z,53.56
2023-05-12T21:00:38.431Z,53.80
2023-05-12T21:01:41.476Z,53.71
2023-05-12T21:02:44.250Z,53.74
2023-05-12T21:03:46.182Z,53.52
2023-05-12T21:04:50.349Z,54.00
2023-05-12T21:05:52.053Z,53.59
2023-05-12T21:06:54.782Z,53.80
2023-05-12T21:07:56.503Z,53.99
2023-05-12T21:08:59.168Z,53.86
2023-05-12T21:10:01.010Z,53.88
2023-05-12T21:11:03.737Z,53.87
2023-05-12T21:12:06.418Z,54.02
2023-05-12T21:13:09.133Z,53.96
2023-05-12T21:14:10.805Z,54.00
2023-05-12T21:15:13.731Z,53.98
2023-05-12T21:16:15.524Z,53.69
2023-05-12T21:17:18.335Z,53.90
2023-05-12T21:18:20.006Z,54.02
2023-05-12T21:19:22.687Z,53.94
2023-05-12T21:20:25.714Z,54.07
2023-05-12T21:21:28.619Z,54.06
2023-05-12T21:22:30.412Z,54.10
2023-05-12T21:23:33.205Z,53.92
2023-05-12T21:24:36.485Z,54.07
2023-05-12T21:25:39.289Z,54.05
2023-05-12T21:26:40.978Z,54.06
2023-05-12T21:27:43.637Z,54.43
2023-05-12T21:28:45.326Z,54.39
2023-05-12T21:29:48.093Z,54.19
2023-05-12T21:30:49.848Z,54.35
2023-05-12T21:31:52.523Z,54.52
2023-05-12T21:32:54.303Z,54.57
2023-05-12T21:33:57.096Z,54.52
2023-05-12T21:34:58.822Z,54.58
2023-05-12T21:36:03.441Z,54.65
2023-05-12T21:37:05.443Z,54.41
2023-05-12T21:38:09.979Z,54.76
2023-05-12T21:39:11.755Z,54.58
2023-05-12T21:40:14.890Z,54.70
2023-05-12T21:41:16.603Z,54.54
2023-05-12T21:42:19.318Z,54.66
2023-05-12T21:43:21.007Z,54.68
2023-05-12T21:44:23.751Z,54.56
2023-05-12T21:45:26.069Z,54.58
2023-05-12T21:46:28.876Z,54.66
2023-05-12T21:47:30.784Z,54.72
2023-05-12T21:48:33.712Z,54.63
2023-05-12T21:49:35.479Z,54.74
2023-05-12T21:50:38.182Z,54.96
2023-05-12T21:51:41.963Z,54.88
2023-05-12T21:52:44.766Z,55.13
2023-05-12T21:53:47.594Z,55.13
2023-05-12T21:54:49.350Z,55.10
2023-05-12T21:55:52.068Z,55.35
2023-05-12T21:56:53.787Z,55.36
2023-05-12T21:57:56.510Z,55.36
2023-05-12T21:58:58.239Z,55.27
2023-05-12T22:00:03.737Z,55.49
2023-05-12T22:01:05.697Z,55.52
2023-05-12T22:02:08.366Z,55.55
2023-05-12T22:03:10.209Z,55.33
2023-05-12T22:04:13.041Z,55.60
2023-05-12T22:05:14.996Z,55.59
2023-05-12T22:06:17.779Z,55.57
2023-05-12T22:07:20.796Z,55.66
2023-05-12T22:08:23.532Z,55.87
2023-05-12T22:09:25.232Z,55.73
2023-05-12T22:10:27.969Z,55.79
2023-05-12T22:11:29.690Z,55.89
2023-05-12T22:12:32.371Z,55.84
2023-05-12T22:13:34.045Z,55.91
2023-05-12T22:14:37.214Z,56.02
2023-05-12T22:15:39.025Z,56.06
2023-05-12T22:16:42.734Z,56.13
2023-05-12T22:17:46.042Z,56.17
2023-05-12T22:18:48.809Z,56.21
2023-05-12T22:19:50.876Z,56.17
2023-05-12T22:20:53.631Z,56.34
2023-05-12T22:21:55.352Z,56.21
2023-05-12T22:22:59.368Z,56.27
2023-05-12T22:24:01.097Z,56.41
2023-05-12T22:25:04.559Z,56.28
2023-05-12T22:26:06.303Z,56.27
2023-05-12T22:27:08.934Z,56.33
2023-05-12T22:28:10.999Z,56.35
2023-05-12T22:29:13.698Z,56.35
2023-05-12T22:30:15.515Z,56.20
2023-05-12T22:31:18.240Z,56.13
2023-05-12T22:32:19.968Z,56.19
2023-05-12T22:33:22.757Z,56.13
2023-05-12T22:34:24.496Z,56.18
2023-05-12T22:35:27.286Z,56.06
2023-05-12T22:36:29.015Z,56.21
2023-05-12T22:37:31.843Z,56.11
2023-05-12T22:38:34.937Z,56.11
2023-05-12T22:39:37.669Z,56.14
2023-05-12T22:40:39.334Z,56.14
2023-05-12T22:41:42.137Z,56.34
2023-05-12T22:42:43.858Z,56.37
2023-05-12T22:43:46.599Z,56.35
2023-05-12T22:44:48.280Z,56.35
2023-05-12T22:45:52.805Z,56.25
2023-05-12T22:46:54.600Z,56.34
2023-05-12T22:47:57.340Z,56.40
2023-05-12T22:48:59.076Z,56.22
2023-05-12T22:50:02.121Z,56.37
2023-05-12T22:51:03.846Z,56.38
2023-05-12T22:52:07.081Z,56.28
2023-05-12T22:53:08.840Z,56.37
2023-05-12T22:54:12.903Z,56.35
2023-05-12T22:55:14.695Z,56.27
2023-05-12T22:56:17.456Z,56.26
2023-05-12T22:57:19.348Z,56.38
2023-05-12T22:58:22.086Z,56.42
2023-05-12T22:59:23.901Z,56.44
2023-05-12T23:00:26.704Z,56.40
2023-05-12T23:01:28.435Z,56.45
2023-05-12T23:02:31.216Z,56.57
2023-05-12T23:03:33.064Z,56.35
2023-05-12T23:04:35.904Z,56.34
2023-05-12T23:05:37.625Z,56.37
2023-05-12T23:06:40.266Z,56.61
2023-05-12T23:07:42.080Z,56.41
2023-05-12T23:08:44.752Z,56.50
2023-05-12T23:09:47.847Z,56.61
2023-05-12T23:10:50.652Z,56.62
2023-05-12T23:11:52.361Z,56.57
2023-05-12T23:12:55.301Z,56.31
2023-05-12T23:13:57.355Z,56.62
2023-05-12T23:15:00.065Z,56.63
2023-05-12T23:16:01.736Z,56.40
2023-05-12T23:17:04.490Z,56.58
2023-05-12T23:18:06.325Z,56.38
2023-05-12T23:19:09.205Z,56.67
2023-05-12T23:20:12.034Z,56.49
2023-05-12T23:21:14.700Z,56.49
2023-05-12T23:22:16.460Z,56.47
2023-05-12T23:23:19.171Z,56.48
2023-05-12T23:24:21.658Z,56.62
2023-05-12T23:25:25.815Z,56.66
2023-05-12T23:26:28.477Z,56.62
2023-05-12T23:27:30.230Z,56.68
2023-05-12T23:28:32.955Z,56.85
2023-05-12T23:29:34.756Z,56.59
2023-05-12T23:30:37.633Z,56.63
2023-05-12T23:31:39.423Z,56.85
2023-05-12T23:32:42.623Z,56.92
2023-05-12T23:33:44.577Z,56.83
2023-05-12T23:34:47.345Z,56.65
2023-05-12T23:35:49.038Z,56.57
2023-05-12T23:36:51.670Z,56.53
2023-05-12T23:37:53.344Z,56.56
2023-05-12T23:38:55.993Z,56.67
2023-05-12T23:39:57.736Z,56.74
2023-05-12T23:41:01.766Z,56.97
2023-05-12T23:42:03.967Z,56.78
2023-05-12T23:43:06.889Z,57.00
2023-05-12T23:44:08.563Z,57.07
2023-05-12T23:45:12.310Z,57.44
2023-05-12T23:46:13.999Z,57.12
2023-05-12T23:47:17.060Z,57.61
2023-05-12T23:48:19.068Z,57.58
2023-05-12T23:49:21.718Z,57.88
2023-05-12T23:50:23.640Z,57.95
2023-05-12T23:51:26.544Z,57.62
2023-05-12T23:52:28.205Z,57.89
2023-05-12T23:53:31.147Z,57.61
2023-05-12T23:54:32.829Z,57.55
2023-05-12T23:55:35.727Z,57.98
2023-05-12T23:56:38.765Z,57.88
2023-05-12T23:57:41.445Z,57.89
2023-05-12T23:58:43.224Z,57.84
2023-05-12T23:59:45.920Z,57.76
